Time;durP1;ratioP1;P1;durP2;ratioP2;P2;SDS_P1;SDS_P2;PMS_P1;PMS_P2;Temp;Humidity;BMP_temperature;BMP_pressure;BME280_temperature;BME280_humidity;BME280_pressure;Samples;Min_cycle;Max_cycle;Signal;HPM_P1;HPM_P2
2022/12/27 00:00:46;;;;;;;59.70;36.08;;;;;;;4.66;59.48;95683.03;5046716;28;20032;-75
2022/12/27 00:03:11;;;;;;;57.67;34.55;;;;;;;4.65;58.50;95680.69;5044672;28;20029;-76
2022/12/27 00:05:37;;;;;;;52.03;32.00;;;;;;;4.64;58.21;95687.25;5044760;28;20029;-76
2022/12/27 00:08:02;;;;;;;53.33;33.55;;;;;;;4.62;58.35;95700.50;5043918;28;20036;-76
2022/12/27 00:10:28;;;;;;;58.75;35.67;;;;;;;4.58;58.93;95680.63;5028578;28;20560;-76
2022/12/27 00:12:53;;;;;;;57.15;38.97;;;;;;;4.58;60.03;95683.34;5045674;28;20025;-75
2022/12/27 00:15:19;;;;;;;61.15;36.78;;;;;;;4.58;59.50;95683.34;5044836;28;20030;-75
2022/12/27 00:17:44;;;;;;;63.83;37.90;;;;;;;4.47;60.35;95678.63;5044658;28;20025;-77
2022/12/27 00:20:10;;;;;;;58.40;34.65;;;;;;;4.48;59.35;95676.69;5027807;28;20052;-76
2022/12/27 00:22:35;;;;;;;56.45;34.30;;;;;;;4.46;59.44;95671.59;5045961;28;20029;-77
2022/12/27 00:25:01;;;;;;;55.53;33.38;;;;;;;4.46;59.05;95679.75;5047397;28;20029;-76
2022/12/27 00:27:26;;;;;;;59.40;34.72;;;;;;;4.45;58.86;95677.44;5031818;28;20499;-75
2022/12/27 00:29:52;;;;;;;61.20;35.55;;;;;;;4.42;58.85;95676.25;5049532;28;20162;-77
2022/12/27 00:32:17;;;;;;;58.17;36.80;;;;;;;4.38;59.43;95683.63;5050066;28;20029;-76
2022/12/27 00:34:43;;;;;;;62.45;36.33;;;;;;;4.37;59.02;95684.00;5049549;28;20036;-77
2022/12/27 00:37:08;;;;;;;59.60;35.42;;;;;;;4.44;59.44;95689.47;5047958;28;20454;-76
2022/12/27 00:39:34;;;;;;;61.20;36.92;;;;;;;4.38;59.47;95686.34;5048398;28;20424;-75
2022/12/27 00:41:59;;;;;;;63.97;37.33;;;;;;;4.33;59.53;95699.50;5049438;28;20020;-76
2022/12/27 00:44:24;;;;;;;61.55;37.35;;;;;;;4.27;59.37;95701.81;5031746;28;20622;-76
2022/12/27 00:46:50;;;;;;;63.42;38.38;;;;;;;4.26;59.62;95700.25;5049079;28;20021;-77
2022/12/27 00:49:15;;;;;;;71.28;41.55;;;;;;;4.21;59.81;95692.44;5047799;28;20060;-77
2022/12/27 00:51:41;;;;;;;72.45;43.10;;;;;;;4.20;59.94;95704.47;5047585;28;20040;-77
2022/12/27 00:54:06;;;;;;;71.45;43.72;;;;;;;4.22;59.78;95700.22;5048250;28;20029;-76
2022/12/27 00:56:32;;;;;;;88.40;49.17;;;;;;;4.22;60.72;95704.88;5049199;28;20033;-76
2022/12/27 00:58:58;;;;;;;84.32;49.38;;;;;;;4.14;60.21;95700.53;5048012;28;20024;-76
2022/12/27 01:01:25;;;;;;;86.53;51.22;;;;;;;4.14;60.92;95700.53;5047802;28;20032;-76
2022/12/27 01:03:50;;;;;;;90.35;53.45;;;;;;;4.10;60.96;95711.38;5030941;28;20033;-76
2022/12/27 01:06:17;;;;;;;100.53;54.50;;;;;;;4.08;61.54;95704.78;5030819;28;20056;-77
2022/12/27 01:08:43;;;;;;;88.05;52.40;;;;;;;4.05;61.14;95698.13;5030409;28;20025;-76
2022/12/27 01:11:09;;;;;;;88.43;52.50;;;;;;;4.07;60.79;95692.31;5047339;28;20600;-75
2022/12/27 01:13:34;;;;;;;90.65;50.55;;;;;;;4.05;60.52;95683.75;5030610;28;20485;-76
2022/12/27 01:16:00;;;;;;;91.60;52.53;;;;;;;4.06;61.67;95688.81;5047717;28;20021;-77
2022/12/27 01:18:26;;;;;;;91.63;49.65;;;;;;;4.04;61.07;95691.13;5030721;28;20033;-75
2022/12/27 01:20:51;;;;;;;80.88;48.55;;;;;;;4.01;60.37;95691.88;5047186;28;20024;-76
2022/12/27 01:23:16;;;;;;;79.65;47.97;;;;;;;4.00;60.84;95690.31;5047103;28;20029;-76
2022/12/27 01:25:42;;;;;;;73.40;44.92;;;;;;;4.02;61.80;95681.78;5048221;28;20029;-76
2022/12/27 01:28:07;;;;;;;80.70;47.58;;;;;;;3.99;63.10;95678.66;5047013;28;20033;-77
2022/12/27 01:30:33;;;;;;;82.43;47.17;;;;;;;3.96;63.64;95675.91;5030764;28;20075;-74
2022/12/27 01:32:58;;;;;;;79.15;46.58;;;;;;;3.98;63.21;95674.38;5030971;28;20082;-77
2022/12/27 01:35:24;;;;;;;72.97;41.25;;;;;;;3.96;62.42;95676.69;5046435;28;20033;-76
2022/12/27 01:37:50;;;;;;;71.03;44.17;;;;;;;3.98;62.63;95676.31;5047400;28;20454;-76
2022/12/27 01:40:15;;;;;;;75.82;46.15;;;;;;;3.99;63.98;95681.38;5030716;28;20075;-76
2022/12/27 01:42:54;;;;;;;77.57;45.78;;;;;;;3.98;64.66;95676.31;5046957;28;20403;-77
2022/12/27 01:45:26;;;;;;;74.25;44.35;;;;;;;3.95;64.46;95674.31;5048531;28;20037;-77
2022/12/27 01:47:59;;;;;;;80.85;46.17;;;;;;;3.92;64.85;95675.88;5030751;28;20196;-76
2022/12/27 01:50:32;;;;;;;70.90;44.60;;;;;;;3.91;64.35;95679.75;5047519;28;20071;-76
2022/12/27 01:53:00;;;;;;;91.57;55.05;;;;;;;3.89;65.05;95676.59;5047642;28;20025;-76
2022/12/27 01:55:27;;;;;;;118.00;71.30;;;;;;;3.89;65.08;95670.38;5046847;28;20094;-77
2022/12/27 01:57:56;;;;;;;126.13;84.85;;;;;;;3.93;65.60;95682.88;5048658;28;20063;-76
2022/12/27 02:00:21;;;;;;;119.90;74.53;;;;;;;3.95;65.73;95677.81;5029947;28;20112;-76
2022/12/27 02:02:47;;;;;;;96.65;60.05;;;;;;;3.93;65.48;95669.28;5046813;28;20028;-75
2022/12/27 02:05:13;;;;;;;96.13;55.70;;;;;;;3.95;65.28;95669.66;5029848;28;20029;-76
2022/12/27 02:07:54;;;;;;;90.38;54.33;;;;;;;3.96;64.97;95676.69;5046456;28;20053;-75
2022/12/27 02:10:20;;;;;;;77.10;49.88;;;;;;;3.97;63.71;95672.81;5051512;28;20033;-75
2022/12/27 02:12:45;;;;;;;91.07;59.13;;;;;;;4.03;64.70;95677.91;5047538;28;20021;-77
2022/12/27 02:15:10;;;;;;;65.55;44.17;;;;;;;4.09;62.11;95676.41;5048965;28;20021;-76
2022/12/27 02:17:36;;;;;;;63.25;40.97;;;;;;;4.04;61.46;95672.09;5048300;28;20029;-76
2022/12/27 02:20:18;;;;;;;68.72;42.03;;;;;;;4.01;61.10;95680.97;5047419;28;20025;-77
2022/12/27 02:25:50;;;;;;;68.03;42.08;;;;;;;3.92;61.83;95672.38;5047744;28;20491;-77
2022/12/27 02:28:52;;;;;;;69.15;42.65;;;;;;;3.91;61.46;95684.41;5047995;28;20109;-75
2022/12/27 02:31:21;;;;;;;73.35;42.55;;;;;;;3.85;61.45;95688.63;5047241;28;20127;-76
2022/12/27 02:33:47;;;;;;;69.63;43.17;;;;;;;3.84;61.07;95681.63;5030072;28;20021;-76
2022/12/27 02:36:16;;;;;;;68.97;42.53;;;;;;;3.84;61.02;95687.88;5046549;28;20025;-77
2022/12/27 02:38:43;;;;;;;76.40;44.28;;;;;;;3.86;60.87;95685.53;5013852;28;20103;-77
2022/12/27 02:55:33;;;;;;;63.28;40.67;;;;;;;3.64;60.87;95681.84;5047344;28;20040;-76
2022/12/27 02:58:21;;;;;;;68.05;39.63;;;;;;;3.60;60.48;95675.56;5047084;28;20064;-76
2022/12/27 03:03:50;;;;;;;72.82;41.83;;;;;;;3.63;60.84;95683.00;5045947;28;20083;-76
2022/12/27 03:09:06;;;;;;;70.70;43.25;;;;;;;3.63;60.76;95677.56;5046675;28;20470;-77
2022/12/27 03:17:34;;;;;;;68.00;40.33;;;;;;;3.52;60.47;95682.09;5032501;28;20074;-77
2022/12/27 03:25:34;;;;;;;63.67;37.95;;;;;;;3.43;60.11;95678.88;5031894;28;20040;-76
2022/12/27 03:34:30;;;;;;;63.03;38.42;;;;;;;3.41;61.30;95678.50;5032080;28;20577;-77
2022/12/27 03:39:41;;;;;;;57.42;34.40;;;;;;;3.37;60.34;95678.44;5031268;28;20490;-75
2022/12/27 03:44:53;;;;;;;64.25;38.38;;;;;;;3.30;60.34;95683.81;5031438;28;20044;-77
2022/12/27 03:47:36;;;;;;;68.05;42.10;;;;;;;3.31;60.55;95682.66;5028241;28;20032;-76
2022/12/27 03:50:15;;;;;;;62.92;38.63;;;;;;;3.30;60.62;95686.53;5030438;28;20021;-76
2022/12/27 03:52:42;;;;;;;56.70;35.78;;;;;;;3.27;60.04;95684.56;5044870;28;20132;-76
2022/12/27 03:55:08;;;;;;;59.88;35.58;;;;;;;3.28;59.98;95685.34;5028623;28;20104;-76
2022/12/27 03:57:34;;;;;;;61.38;35.95;;;;;;;3.29;60.16;95682.25;5044403;28;20021;-75
2022/12/27 03:59:59;;;;;;;61.97;35.70;;;;;;;3.32;60.31;95680.72;5016066;28;20028;-77
2022/12/27 04:02:25;;;;;;;56.08;35.17;;;;;;;3.27;60.78;95683.75;5048372;28;20021;-77
2022/12/27 04:04:50;;;;;;;57.88;35.67;;;;;;;3.23;60.76;95689.16;5048614;28;20017;-76
2022/12/27 04:07:16;;;;;;;59.05;34.97;;;;;;;3.22;60.23;95679.47;5049516;28;20033;-77
2022/12/27 04:37:01;;;;;;;70.43;41.80;;;;;;;2.80;61.33;95707.63;5049236;28;20075;-76
2022/12/27 04:39:26;;;;;;;73.57;41.33;;;;;;;2.86;61.90;95722.47;5053199;28;20036;-77
2022/12/27 04:56:00;;;;;;;73.03;42.25;;;;;;;2.89;60.59;95740.75;5049125;28;20450;-77
2022/12/27 04:58:25;;;;;;;73.18;44.53;;;;;;;2.90;60.69;95731.44;5049998;28;20025;-76
2022/12/27 05:03:35;;;;;;;74.10;42.25;;;;;;;2.91;61.78;95722.16;5049125;28;20032;-75
2022/12/27 05:06:00;;;;;;;61.50;41.60;;;;;;;2.91;62.28;95724.09;5031210;28;20057;-76
2022/12/27 05:14:00;;;;;;;27.50;17.70;;;;;;;2.81;65.67;95703.78;5034602;28;20510;-76
2022/12/27 05:16:30;;;;;;;28.17;16.20;;;;;;;2.77;66.33;95702.97;5048050;28;20036;-76
2022/12/27 05:18:56;;;;;;;30.95;17.25;;;;;;;2.78;66.32;95704.53;5032005;28;20029;-76
2022/12/27 05:21:21;;;;;;;26.20;15.93;;;;;;;2.87;65.29;95709.69;5031225;28;20411;-77
2022/12/27 05:26:31;;;;;;;24.65;15.90;;;;;;;2.98;66.45;95698.94;5048558;28;20146;-76
2022/12/27 05:28:57;;;;;;;27.77;16.70;;;;;;;3.00;66.74;95675.72;5030835;28;20029;-76
2022/12/27 05:31:23;;;;;;;29.85;19.58;;;;;;;3.06;64.50;95674.22;5030653;28;20480;-77
2022/12/27 05:33:49;;;;;;;31.02;20.23;;;;;;;3.07;63.86;95681.22;5030991;28;20417;-76
2022/12/27 05:36:14;;;;;;;35.53;20.90;;;;;;;3.17;65.18;95677.84;5046929;28;20079;-76
2022/12/27 05:38:40;;;;;;;29.52;20.08;;;;;;;3.19;63.41;95688.34;5048364;28;20048;-76
2022/12/27 05:41:05;;;;;;;29.77;19.23;;;;;;;3.23;62.67;95696.53;5048330;28;20035;-77
2022/12/27 05:43:31;;;;;;;28.02;18.85;;;;;;;3.23;61.91;95705.47;5030594;28;20029;-76
2022/12/27 05:46:02;;;;;;;41.65;24.85;;;;;;;3.23;61.89;95716.34;5048695;28;20021;-77
2022/12/27 05:48:28;;;;;;;49.78;31.30;;;;;;;3.24;61.12;95712.47;5030331;28;20029;-76
2022/12/27 05:50:53;;;;;;;61.30;37.85;;;;;;;3.22;60.92;95714.00;5047283;28;20032;-75
2022/12/27 05:53:18;;;;;;;63.88;39.83;;;;;;;3.20;60.51;95717.06;5046337;28;20040;-76
2022/12/27 05:55:44;;;;;;;75.22;43.63;;;;;;;3.15;60.36;95720.09;5047970;28;20028;-75
2022/12/27 05:58:09;;;;;;;77.25;44.65;;;;;;;3.12;60.30;95723.59;5048740;28;20036;-76
2022/12/27 06:00:35;;;;;;;72.47;44.33;;;;;;;3.09;60.09;95722.38;5047836;28;20029;-77
2022/12/27 06:03:01;;;;;;;72.95;42.92;;;;;;;3.11;60.00;95724.75;5046838;28;20033;-75
2022/12/27 06:05:27;;;;;;;77.43;46.40;;;;;;;3.10;60.04;95723.19;5048248;28;20112;-76
2022/12/27 06:07:52;;;;;;;70.60;43.05;;;;;;;3.06;60.45;95722.34;5047814;28;20067;-76
2022/12/27 06:10:18;;;;;;;67.90;42.00;;;;;;;3.10;60.43;95729.38;5046531;28;21017;-76
2022/12/27 06:12:43;;;;;;;72.65;43.92;;;;;;;3.11;60.20;95728.22;5030167;28;20025;-77
2022/12/27 06:15:10;;;;;;;78.15;44.83;;;;;;;3.08;60.62;95736.34;5046264;28;20032;-76
2022/12/27 06:17:36;;;;;;;63.55;40.13;;;;;;;3.03;61.09;95737.44;5046354;28;20061;-76
2022/12/27 06:20:01;;;;;;;64.82;41.08;;;;;;;3.08;61.31;95742.53;5013263;28;20033;-76
2022/12/27 06:22:27;;;;;;;66.72;41.70;;;;;;;3.09;61.11;95737.88;5045274;28;20024;-76
2022/12/27 06:24:52;;;;;;;60.88;38.10;;;;;;;3.08;61.19;95741.75;5047815;28;20044;-76
2022/12/27 06:27:18;;;;;;;61.50;35.70;;;;;;;3.09;61.38;95732.47;5047266;28;20021;-75
2022/12/27 06:29:43;;;;;;;57.90;36.83;;;;;;;3.11;61.07;95741.81;5047756;28;20025;-76
2022/12/27 06:32:08;;;;;;;59.08;36.60;;;;;;;3.10;60.97;95734.03;5047411;28;20021;-76
2022/12/27 06:34:34;;;;;;;57.03;33.50;;;;;;;3.12;60.94;95737.94;5046236;28;20467;-76
2022/12/27 06:36:59;;;;;;;57.05;34.05;;;;;;;3.15;61.07;95733.69;5046983;28;20047;-75
2022/12/27 06:39:25;;;;;;;55.03;35.22;;;;;;;3.16;61.09;95735.28;5047363;28;20021;-76
2022/12/27 06:41:53;;;;;;;54.45;32.50;;;;;;;3.24;61.39;95736.94;5046113;28;20060;-76
2022/12/27 06:44:19;;;;;;;54.60;33.67;;;;;;;3.26;61.75;95731.88;5045663;28;20483;-76
2022/12/27 06:46:44;;;;;;;53.15;34.28;;;;;;;3.28;61.82;95734.25;5013383;28;20059;-76
2022/12/27 06:49:10;;;;;;;52.65;34.42;;;;;;;3.33;61.26;95737.44;5046746;28;20036;-78
2022/12/27 06:51:35;;;;;;;54.80;34.65;;;;;;;3.43;60.81;95735.97;5046607;28;20025;-77
2022/12/27 06:54:01;;;;;;;58.33;37.08;;;;;;;3.52;60.67;95733.75;5047399;28;20033;-77
2022/12/27 06:56:27;;;;;;;56.33;36.58;;;;;;;3.63;60.24;95733.88;5047353;28;20079;-75
2022/12/27 06:58:53;;;;;;;59.55;37.33;;;;;;;3.69;60.02;95735.09;5045321;28;20083;-76
2022/12/27 07:01:23;;;;;;;62.85;40.97;;;;;;;3.85;59.82;95732.94;5030283;28;20040;-76
2022/12/27 07:03:56;;;;;;;62.58;39.92;;;;;;;3.97;59.24;95731.88;5045997;28;20115;-76
2022/12/27 07:06:22;;;;;;;74.20;42.47;;;;;;;4.09;59.02;95730.81;5028900;28;20080;-75
2022/12/27 07:08:47;;;;;;;63.35;41.55;;;;;;;4.24;58.85;95732.50;5046621;28;20435;-75
2022/12/27 07:11:13;;;;;;;66.53;38.17;;;;;;;4.36;58.90;95734.94;5051959;28;20499;-76
2022/12/27 07:13:40;;;;;;;61.65;38.35;;;;;;;4.44;58.72;95728.38;5046529;28;20027;-75
2022/12/27 07:16:06;;;;;;;75.30;40.95;;;;;;;4.55;58.41;95724.97;5045901;28;20033;-76
2022/12/27 07:18:32;;;;;;;65.03;41.15;;;;;;;4.64;58.17;95726.19;5046035;28;20025;-76
2022/12/27 07:20:57;;;;;;;63.67;41.38;;;;;;;4.76;57.80;95734.06;5029437;28;20443;-76
2022/12/27 07:23:23;;;;;;;60.97;42.22;;;;;;;4.87;57.67;95727.88;5045805;28;20071;-76
2022/12/27 07:25:48;;;;;;;77.45;45.00;;;;;;;4.98;57.68;95729.50;5047763;28;20472;-76
2022/12/27 07:28:14;;;;;;;78.55;46.45;;;;;;;5.05;56.98;95732.28;5046873;28;20495;-75
2022/12/27 07:30:40;;;;;;;83.05;49.83;;;;;;;5.18;56.57;95724.53;5046256;28;20044;-78
2022/12/27 07:33:06;;;;;;;83.05;49.30;;;;;;;5.33;56.19;95734.34;5045059;28;20104;-75
2022/12/27 07:35:31;;;;;;;82.38;52.67;;;;;;;5.52;55.90;95732.47;5045450;28;20044;-77
2022/12/27 07:37:57;;;;;;;102.22;60.42;;;;;;;5.69;55.31;95739.94;5045301;28;20029;-77
2022/12/27 07:40:22;;;;;;;99.57;59.88;;;;;;;5.83;54.81;95723.56;5046640;28;20028;-76
2022/12/27 07:42:48;;;;;;;112.63;68.85;;;;;;;6.05;54.16;95718.19;5045461;28;20017;-75
2022/12/27 07:45:13;;;;;;;118.40;74.22;;;;;;;6.22;54.06;95722.09;5046423;28;20029;-77
2022/12/27 07:47:38;;;;;;;129.50;75.95;;;;;;;6.34;53.47;95708.06;5047043;28;20025;-77
2022/12/27 07:50:06;;;;;;;119.72;75.03;;;;;;;6.65;52.76;95722.84;5045795;28;20032;-76
2022/12/27 07:52:31;;;;;;;126.43;76.70;;;;;;;6.80;52.39;95718.94;5046646;28;20064;-77
2022/12/27 07:54:56;;;;;;;123.60;76.40;;;;;;;7.07;51.56;95726.72;5046010;28;20017;-75
2022/12/27 07:57:22;;;;;;;118.13;72.10;;;;;;;7.27;51.39;95722.34;5046460;28;20365;-76
2022/12/27 07:59:47;;;;;;;116.47;68.78;;;;;;;7.63;50.11;95733.94;5046418;28;20017;-76
2022/12/27 08:02:15;;;;;;;111.75;68.43;;;;;;;8.06;49.40;95735.63;5046082;28;20051;-76
2022/12/27 08:04:40;;;;;;;110.65;66.60;;;;;;;9.21;46.88;95731.53;5046788;28;20048;-77
2022/12/27 08:07:15;;;;;;;104.88;65.80;;;;;;;11.44;42.00;95738.81;5028082;28;20094;-76
2022/12/27 08:09:41;;;;;;;97.63;65.18;;;;;;;13.31;38.13;95727.91;5045371;28;20484;-77
2022/12/27 08:12:07;;;;;;;101.55;65.28;;;;;;;14.85;34.79;95742.31;5045002;28;20092;-76
2022/12/27 08:14:32;;;;;;;96.57;63.80;;;;;;;15.97;32.86;95736.47;5045065;28;20090;-77
2022/12/27 08:17:01;;;;;;;91.43;62.33;;;;;;;17.41;30.48;95752.56;5044575;28;20384;-77
2022/12/27 08:19:27;;;;;;;89.28;64.25;;;;;;;18.63;28.83;95754.25;5028841;28;20027;-76
2022/12/27 08:21:52;;;;;;;83.30;60.38;;;;;;;19.83;26.73;95745.97;5045127;28;20025;-77
2022/12/27 08:24:18;;;;;;;83.60;61.45;;;;;;;20.82;25.55;95753.03;5044025;28;20033;-77
2022/12/27 08:26:43;;;;;;;83.68;62.08;;;;;;;21.85;23.98;95754.66;5046503;28;20033;-76
2022/12/27 08:29:08;;;;;;;83.22;61.47;;;;;;;22.93;23.08;95755.97;5045178;28;20110;-78
2022/12/27 08:31:34;;;;;;;81.40;60.63;;;;;;;23.72;22.12;95765.59;5046269;28;20048;-76
2022/12/27 08:33:59;;;;;;;77.55;60.97;;;;;;;24.58;20.77;95757.66;5045287;28;20029;-77
2022/12/27 08:36:25;;;;;;;73.85;59.17;;;;;;;25.54;20.17;95749.13;5027929;28;20458;-78
2022/12/27 08:38:53;;;;;;;68.35;54.40;;;;;;;26.42;19.36;95741.53;5045604;28;20032;-77
2022/12/27 08:41:21;;;;;;;61.42;49.95;;;;;;;27.39;18.40;95740.19;5045373;28;20116;-77
2022/12/27 08:43:47;;;;;;;61.10;49.13;;;;;;;28.03;17.79;95745.38;5044702;28;20025;-76
2022/12/27 08:46:12;;;;;;;59.38;47.97;;;;;;;28.73;17.42;95749.00;5047605;28;20037;-77
2022/12/27 08:48:37;;;;;;;60.75;48.15;;;;;;;29.47;16.28;95757.00;5048305;28;20082;-78
2022/12/27 08:51:04;;;;;;;59.25;48.50;;;;;;;29.98;15.89;95743.38;5048810;28;20017;-78
2022/12/27 08:53:30;;;;;;;61.22;49.15;;;;;;;30.60;15.34;95739.97;5049324;28;20025;-77
2022/12/27 08:55:56;;;;;;;57.40;47.50;;;;;;;31.09;14.88;95730.03;5049266;28;20027;-76
2022/12/27 08:58:21;;;;;;;56.00;49.80;;;;;;;31.70;14.32;95747.50;5049191;28;20029;-77
2022/12/27 09:00:46;;;;;;;57.88;49.10;;;;;;;32.23;13.82;95733.59;5049163;28;20396;-78
2022/12/27 09:03:12;;;;;;;61.40;52.35;;;;;;;32.83;13.39;95730.72;5047451;28;20036;-77
2022/12/27 09:05:37;;;;;;;60.20;51.83;;;;;;;33.28;13.33;95725.06;5031156;28;20025;-76
2022/12/27 09:08:03;;;;;;;61.35;53.58;;;;;;;33.63;12.82;95730.38;5047704;28;20036;-77
2022/12/27 09:10:28;;;;;;;60.20;50.33;;;;;;;34.08;12.80;95716.00;5049359;28;20547;-78
2022/12/27 09:12:54;;;;;;;53.88;47.60;;;;;;;34.46;11.85;95723.63;5048664;28;20034;-78
2022/12/27 09:15:19;;;;;;;53.63;46.95;;;;;;;34.70;12.09;95710.75;5049676;28;20479;-77
2022/12/27 09:17:44;;;;;;;51.63;45.40;;;;;;;34.90;11.69;95703.16;5048968;28;20037;-78
2022/12/27 09:20:11;;;;;;;48.33;43.13;;;;;;;35.30;11.47;95705.91;5049066;28;20472;-77
2022/12/27 09:22:36;;;;;;;43.78;38.10;;;;;;;35.81;11.41;95695.13;5048785;28;20048;-76
2022/12/27 09:25:02;;;;;;;41.80;36.85;;;;;;;36.35;11.44;95693.13;5029936;28;20075;-78
2022/12/27 09:27:28;;;;;;;41.80;37.40;;;;;;;36.85;10.91;95684.22;5048793;28;20025;-78
2022/12/27 09:29:53;;;;;;;37.95;33.90;;;;;;;37.39;10.51;95692.75;5029689;28;20024;-76
2022/12/27 09:32:19;;;;;;;40.30;35.40;;;;;;;37.87;10.35;95692.06;5047638;28;20021;-76
2022/12/27 09:34:44;;;;;;;38.85;34.67;;;;;;;38.41;10.15;95697.47;5030155;28;20028;-78
2022/12/27 09:37:10;;;;;;;37.83;33.92;;;;;;;38.88;9.58;95694.34;5048582;28;20021;-76
2022/12/27 09:39:35;;;;;;;37.92;33.83;;;;;;;39.30;9.13;95685.84;5048351;28;20083;-78
2022/12/27 09:42:05;;;;;;;36.08;32.28;;;;;;;39.43;9.40;95686.69;5047539;28;20156;-76
2022/12/27 09:44:38;;;;;;;40.90;36.50;;;;;;;39.72;9.02;95695.91;5031368;28;20029;-77
2022/12/27 09:47:11;;;;;;;46.65;41.42;;;;;;;39.95;8.68;95683.00;5030190;28;20587;-77
2022/12/27 09:49:39;;;;;;;57.05;48.83;;;;;;;40.10;8.61;95676.09;5031181;28;20510;-77
2022/12/27 09:52:29;;;;;;;59.50;52.72;;;;;;;40.23;8.49;95695.66;5030027;28;20091;-77
2022/12/27 09:55:17;;;;;;;61.60;54.90;;;;;;;40.29;8.61;95681.66;5046715;28;20024;-77
2022/12/27 09:57:43;;;;;;;62.83;56.22;;;;;;;40.24;8.72;95692.16;5049526;28;20075;-77
2022/12/27 10:00:19;;;;;;;58.50;52.25;;;;;;;40.11;8.45;95684.09;5029286;28;20037;-76
2022/12/27 10:02:46;;;;;;;57.72;49.40;;;;;;;40.05;8.67;95667.19;5046686;28;20036;-77
2022/12/27 10:05:28;;;;;;;52.85;47.05;;;;;;;40.17;8.61;95649.19;5029675;28;20128;-76
2022/12/27 10:08:00;;;;;;;52.97;47.22;;;;;;;40.47;8.48;95647.50;5046132;28;20057;-77
2022/12/27 10:10:41;;;;;;;52.47;46.35;;;;;;;40.80;8.22;95648.22;5048690;28;20021;-78
2022/12/27 10:13:25;;;;;;;53.33;47.17;;;;;;;41.34;8.25;95647.22;5030779;28;20513;-77
2022/12/27 10:16:20;;;;;;;51.63;45.05;;;;;;;41.57;8.08;95646.41;5046419;28;20079;-76
2022/12/27 10:19:00;;;;;;;52.60;47.03;;;;;;;41.80;7.91;95642.00;5044692;28;20041;-76
2022/12/27 10:21:26;;;;;;;50.13;44.70;;;;;;;41.99;7.75;95643.81;5046614;28;20116;-77
2022/12/27 10:24:19;;;;;;;53.75;44.90;;;;;;;42.39;7.63;95639.63;5046860;28;20090;-76
2022/12/27 10:26:44;;;;;;;50.75;45.20;;;;;;;42.37;7.38;95648.16;5044540;28;20046;-77
2022/12/27 10:29:18;;;;;;;48.58;43.50;;;;;;;42.66;7.42;95638.94;5047657;28;20043;-76
2022/12/27 10:31:44;;;;;;;47.95;42.30;;;;;;;42.98;7.58;95645.75;5047827;28;20499;-76
2022/12/27 10:34:12;;;;;;;48.05;42.78;;;;;;;43.27;7.14;95648.03;5045443;28;20032;-75
2022/12/27 10:36:38;;;;;;;43.58;38.83;;;;;;;43.44;6.77;95644.63;5030265;28;20060;-75
2022/12/27 10:39:09;;;;;;;39.42;35.38;;;;;;;43.67;6.83;95643.63;5045521;28;20013;-78
2022/12/27 10:41:49;;;;;;;36.07;32.33;;;;;;;43.89;6.75;95641.13;5030280;28;20041;-76
2022/12/27 10:44:14;;;;;;;32.75;29.27;;;;;;;44.10;6.55;95634.19;5045845;28;20052;-77
2022/12/27 10:46:40;;;;;;;32.25;28.05;;;;;;;44.30;6.45;95633.72;5045458;28;20063;-77
2022/12/27 10:49:07;;;;;;;26.35;22.98;;;;;;;44.56;6.45;95634.19;5030311;28;20075;-76
2022/12/27 10:51:34;;;;;;;20.75;18.20;;;;;;;44.33;6.34;95633.13;5046236;28;20033;-76
2022/12/27 10:54:13;;;;;;;19.80;16.42;;;;;;;44.78;6.12;95627.31;5030274;28;20075;-77
2022/12/27 10:56:46;;;;;;;20.48;17.58;;;;;;;44.80;6.13;95620.16;5044775;28;20032;-77
2022/12/27 10:59:25;;;;;;;23.20;18.77;;;;;;;44.75;6.39;95610.50;5046206;28;20094;-77
2022/12/27 11:02:03;;;;;;;22.02;19.42;;;;;;;45.01;5.97;95617.50;5046046;28;20071;-78
2022/12/27 11:04:29;;;;;;;23.40;20.85;;;;;;;45.37;5.90;95614.03;5046323;28;20025;-77
2022/12/27 11:07:03;;;;;;;23.23;19.27;;;;;;;45.57;5.66;95620.72;5045704;28;20059;-76
2022/12/27 11:09:42;;;;;;;22.75;18.95;;;;;;;45.38;5.88;95616.28;5045116;28;20025;-77
2022/12/27 11:12:24;;;;;;;18.83;15.98;;;;;;;45.08;6.15;95612.00;5046091;28;20488;-78
2022/12/27 11:14:53;;;;;;;;;;;;;;;44.86;6.20;95609.56;5047591;28;20508;-77
2022/12/27 11:17:18;;;;;;;19.50;17.15;;;;;;;44.90;6.16;95601.03;5045985;28;19961;-77
2022/12/27 11:19:44;;;;;;;21.55;16.50;;;;;;;44.98;6.17;95604.34;5029581;28;20017;-77
2022/12/27 11:22:10;;;;;;;16.23;14.43;;;;;;;44.94;6.09;95607.03;5028042;28;20296;-77
2022/12/27 11:24:35;;;;;;;18.38;15.65;;;;;;;44.22;6.46;95602.22;5046373;28;20466;-77
2022/12/27 11:27:01;;;;;;;16.98;15.18;;;;;;;43.99;7.02;95601.09;5044343;28;20554;-77
2022/12/27 11:29:27;;;;;;;18.23;15.32;;;;;;;44.25;6.70;95598.00;5047194;28;20059;-77
2022/12/27 11:31:53;;;;;;;15.63;13.90;;;;;;;44.54;6.64;95597.19;5045333;28;20025;-77
2022/12/27 11:34:28;;;;;;;15.43;13.80;;;;;;;44.92;6.36;95600.41;5046567;28;20025;-76
2022/12/27 11:36:54;;;;;;;17.20;14.52;;;;;;;45.47;6.35;95609.41;5029605;28;20399;-77
2022/12/27 11:39:39;;;;;;;17.40;15.57;;;;;;;42.54;7.76;95600.69;5044408;28;20578;-76
2022/12/27 11:42:24;;;;;;;19.88;17.10;;;;;;;40.16;8.90;95595.88;5045907;28;20107;-76
2022/12/27 11:45:16;;;;;;;20.35;17.58;;;;;;;38.02;10.16;95595.56;5041672;28;20049;-76
2022/12/27 11:47:42;;;;;;;21.83;18.08;;;;;;;36.20;11.19;95593.19;5022795;28;20053;-76
2022/12/27 11:50:23;;;;;;;23.20;19.02;;;;;;;34.30;12.56;95585.97;5024627;28;20087;-77
2022/12/27 11:53:06;;;;;;;24.38;19.88;;;;;;;32.56;14.13;95590.84;5006799;28;20049;-76
2022/12/27 11:55:38;;;;;;;26.77;20.63;;;;;;;31.08;15.39;95575.97;5008352;28;20037;-77
2022/12/27 11:58:17;;;;;;;24.05;19.70;;;;;;;29.59;16.84;95571.38;5024085;28;20116;-77
2022/12/27 12:00:56;;;;;;;24.00;20.10;;;;;;;28.45;18.12;95581.84;5006193;28;20036;-76
2022/12/27 12:03:48;;;;;;;23.35;19.75;;;;;;;27.30;18.87;95578.91;4992397;28;20033;-77
2022/12/27 12:06:19;;;;;;;30.85;24.63;;;;;;;26.37;20.42;95580.91;5023471;28;20053;-77
2022/12/27 12:09:21;;;;;;;27.23;22.08;;;;;;;25.37;21.39;95583.91;5008023;28;20154;-77
2022/12/27 12:12:25;;;;;;;29.40;22.45;;;;;;;24.35;22.82;95560.19;5008434;28;20420;-77
2022/12/27 12:15:01;;;;;;;27.05;21.25;;;;;;;23.45;24.42;95572.63;4993217;28;20563;-77
2022/12/27 12:17:55;;;;;;;28.33;20.55;;;;;;;22.60;25.69;95565.94;5008890;28;20034;-75
2022/12/27 12:20:39;;;;;;;28.15;19.73;;;;;;;21.85;27.48;95565.16;4985857;28;20069;-75
2022/12/27 12:23:12;;;;;;;19.67;14.88;;;;;;;21.03;28.95;95558.97;5026543;28;20511;-75
2022/12/27 12:26:05;;;;;;;19.85;15.05;;;;;;;20.42;29.78;95559.72;5014885;28;20461;-75
2022/12/27 12:28:51;;;;;;;16.70;12.45;;;;;;;19.50;31.40;95562.06;5049346;28;20083;-76
2022/12/27 12:31:55;;;;;;;19.70;12.07;;;;;;;18.77;32.80;95575.38;5048890;28;20048;-77
2022/12/27 12:34:59;;;;;;;15.02;9.43;;;;;;;18.15;33.80;95576.03;5044764;28;20068;-75
2022/12/27 12:37:46;;;;;;;12.23;7.47;;;;;;;17.68;34.70;95582.22;5028687;28;20124;-76
2022/12/27 12:40:34;;;;;;;11.10;7.05;;;;;;;17.19;35.98;95574.91;5048302;28;20436;-77
2022/12/27 12:43:12;;;;;;;9.82;7.10;;;;;;;16.79;37.01;95586.16;5049716;28;20044;-75
2022/12/27 12:46:00;;;;;;;10.98;5.82;;;;;;;16.53;37.56;95591.22;5032473;28;20045;-76
2022/12/27 12:48:54;;;;;;;9.18;6.15;;;;;;;16.32;38.45;95593.63;5047372;28;20036;-74
2022/12/27 12:52:15;;;;;;;17.35;11.18;;;;;;;16.14;38.60;95597.13;5049368;28;20032;-77
2022/12/27 12:54:57;;;;;;;32.35;21.77;;;;;;;16.20;38.73;95597.28;5034242;28;20380;-76
2022/12/27 12:57:34;;;;;;;34.70;23.77;;;;;;;16.20;38.48;95600.84;5046918;28;20036;-76
2022/12/27 13:00:24;;;;;;;31.45;22.27;;;;;;;16.27;38.83;95599.78;5049038;28;20033;-75
2022/12/27 13:03:20;;;;;;;24.05;16.88;;;;;;;16.27;39.17;95610.88;5047610;28;20515;-77
2022/12/27 13:06:04;;;;;;;18.73;10.77;;;;;;;16.07;39.86;95608.50;5047671;28;20025;-75
2022/12/27 13:09:14;;;;;;;12.93;7.80;;;;;;;15.84;40.77;95609.78;5048320;28;20123;-77
2022/12/27 13:11:57;;;;;;;10.75;6.00;;;;;;;15.46;41.19;95604.47;5026533;28;20041;-76
2022/12/27 13:14:47;;;;;;;18.65;9.63;;;;;;;15.31;41.74;95606.22;4993829;28;20079;-76
2022/12/27 13:17:34;;;;;;;8.88;4.20;;;;;;;15.06;42.39;95610.66;5027353;28;20503;-76